DLH3A EDDF-TNCM
Flight info
| Callsign | DLH3A |
|---|---|
| Flight time | N/A |
| Altitude | 33000 |
| Route | SOBRA2L/18 SOBRA Y180 DIK UN857 GIMER UT300 EVX/N0489F320 UT300 RUBIX/N0482F340 UT300 SENLO UN502 JSY DCT LARLA DCT RATKA/M084F340 DCT OMOKO DCT 45N020W 39N030W/M084F360 35N035W 32N040W 29N045W 27N048W 26N050W 20N060W DCT OBIKE M576 PJM |
| Aircraft | A346/H-SDE2E3FGHIJ3J4J5M1RWXY/LB1D1 |
Departure
| Time | 2026-04-15 14:56 |
|---|---|
| Airport | Frankfurt Main Airport (EDDF) |
Arrival
| Time | N/A |
|---|---|
| Airport | Princess Juliana International Airport (TNCM) |
| Time | Latitude | Longitude | Altitude | Speed | Heading |
|---|---|---|---|---|---|
| 2026-04-15 14:32 | 50.04960 | 8.57674 | 371 ft | 0 kts | 23° |
| 2026-04-15 14:42 | 50.04953 | 8.57669 | 371 ft | 4 kts | 21° |
| 2026-04-15 14:42 | 50.04928 | 8.57655 | 375 ft | 3 kts | 20° |
| 2026-04-15 14:43 | 50.04906 | 8.57638 | 373 ft | 4 kts | 38° |
| 2026-04-15 14:43 | 50.04891 | 8.57611 | 373 ft | 4 kts | 64° |
| 2026-04-15 14:43 | 50.04884 | 8.57577 | 375 ft | 1 kts | 81° |
| 2026-04-15 14:43 | 50.04884 | 8.57576 | 375 ft | 0 kts | 81° |
| 2026-04-15 14:46 | 50.04886 | 8.57605 | 374 ft | 7 kts | 86° |
| 2026-04-15 14:47 | 50.04878 | 8.57724 | 373 ft | 14 kts | 110° |
| 2026-04-15 14:47 | 50.04867 | 8.57767 | 373 ft | 2 kts | 113° |
| 2026-04-15 14:47 | 50.04856 | 8.57808 | 372 ft | 7 kts | 113° |
| 2026-04-15 14:47 | 50.04819 | 8.57889 | 373 ft | 11 kts | 145° |
| 2026-04-15 14:48 | 50.04733 | 8.57912 | 370 ft | 15 kts | 204° |
| 2026-04-15 14:48 | 50.04675 | 8.57762 | 373 ft | 18 kts | 249° |
| 2026-04-15 14:48 | 50.04626 | 8.57559 | 371 ft | 21 kts | 249° |
| 2026-04-15 14:48 | 50.04583 | 8.57379 | 374 ft | 13 kts | 249° |
| 2026-04-15 14:49 | 50.04576 | 8.57351 | 373 ft | 4 kts | 249° |
| 2026-04-15 14:49 | 50.04566 | 8.57305 | 371 ft | 0 kts | 250° |
| 2026-04-15 14:49 | 50.04559 | 8.57276 | 371 ft | 8 kts | 250° |
| 2026-04-15 14:49 | 50.04523 | 8.57124 | 372 ft | 22 kts | 250° |
| 2026-04-15 14:50 | 50.04456 | 8.56845 | 374 ft | 29 kts | 249° |
| 2026-04-15 14:50 | 50.04385 | 8.56551 | 374 ft | 29 kts | 250° |
| 2026-04-15 14:50 | 50.04317 | 8.56262 | 374 ft | 28 kts | 249° |
| 2026-04-15 14:50 | 50.04246 | 8.55973 | 374 ft | 28 kts | 249° |
| 2026-04-15 14:51 | 50.04178 | 8.55686 | 371 ft | 28 kts | 250° |
| 2026-04-15 14:51 | 50.04110 | 8.55395 | 375 ft | 30 kts | 250° |
| 2026-04-15 14:51 | 50.04033 | 8.55081 | 374 ft | 31 kts | 250° |
| 2026-04-15 14:51 | 50.03959 | 8.54773 | 374 ft | 30 kts | 249° |
| 2026-04-15 14:52 | 50.03888 | 8.54469 | 374 ft | 29 kts | 248° |
| 2026-04-15 14:52 | 50.03794 | 8.54188 | 375 ft | 29 kts | 250° |
| 2026-04-15 14:52 | 50.03748 | 8.53990 | 375 ft | 18 kts | 250° |
| 2026-04-15 14:52 | 50.03704 | 8.53809 | 373 ft | 18 kts | 249° |
| 2026-04-15 14:53 | 50.03657 | 8.53618 | 373 ft | 20 kts | 248° |
| 2026-04-15 14:53 | 50.03597 | 8.53381 | 373 ft | 28 kts | 249° |
| 2026-04-15 14:53 | 50.03529 | 8.53102 | 372 ft | 28 kts | 249° |
| 2026-04-15 14:53 | 50.03465 | 8.52844 | 375 ft | 12 kts | 247° |
| 2026-04-15 14:54 | 50.03432 | 8.52721 | 377 ft | 12 kts | 248° |
| 2026-04-15 14:54 | 50.03397 | 8.52613 | 376 ft | 12 kts | 223° |
| 2026-04-15 14:54 | 50.03368 | 8.52595 | 376 ft | 0 kts | 181° |
| 2026-04-15 14:55 | 50.03196 | 8.52595 | 370 ft | 53 kts | 179° |
| 2026-04-15 14:55 | 50.02640 | 8.52601 | 375 ft | 105 kts | 180° |
| 2026-04-15 14:55 | 50.01751 | 8.52610 | 372 ft | 149 kts | 179° |
| 2026-04-15 14:56 | 50.00580 | 8.52619 | 376 ft | 184 kts | 179° |
| 2026-04-15 14:56 | 49.99219 | 8.52617 | 588 ft | 199 kts | 180° |
| 2026-04-15 14:56 | 49.97805 | 8.52618 | 1002 ft | 207 kts | 179° |
| 2026-04-15 14:56 | 49.96361 | 8.52683 | 1552 ft | 208 kts | 177° |
| 2026-04-15 14:57 | 49.94934 | 8.52816 | 2224 ft | 205 kts | 176° |
| 2026-04-15 14:57 | 49.93471 | 8.52964 | 2554 ft | 216 kts | 176° |
| 2026-04-15 14:57 | 49.91935 | 8.53107 | 2882 ft | 224 kts | 176° |
| 2026-04-15 14:57 | 49.90371 | 8.53240 | 3335 ft | 226 kts | 177° |
| 2026-04-15 14:58 | 49.88799 | 8.53366 | 3839 ft | 226 kts | 177° |
| 2026-04-15 14:58 | 49.87240 | 8.53263 | 4369 ft | 226 kts | 190° |
| 2026-04-15 14:58 | 49.85691 | 8.52614 | 4727 ft | 237 kts | 199° |
| 2026-04-15 14:58 | 49.84102 | 8.51712 | 4997 ft | 250 kts | 200° |
| 2026-04-15 14:59 | 49.82432 | 8.50739 | 5285 ft | 262 kts | 200° |
| 2026-04-15 14:59 | 49.80703 | 8.49744 | 5785 ft | 266 kts | 200° |
| 2026-04-15 14:59 | 49.78966 | 8.48756 | 6396 ft | 266 kts | 200° |
| 2026-04-15 14:59 | 49.77291 | 8.47525 | 6927 ft | 270 kts | 219° |
| 2026-04-15 15:00 | 49.76128 | 8.45249 | 7407 ft | 274 kts | 248° |
| 2026-04-15 15:00 | 49.75784 | 8.42338 | 7954 ft | 278 kts | 275° |
| 2026-04-15 15:00 | 49.76185 | 8.39400 | 8551 ft | 280 kts | 283° |
| 2026-04-15 15:00 | 49.76694 | 8.36470 | 9144 ft | 283 kts | 283° |
| 2026-04-15 15:01 | 49.77194 | 8.33507 | 9727 ft | 285 kts | 283° |
| 2026-04-15 15:01 | 49.77686 | 8.30517 | 10293 ft | 287 kts | 283° |
| 2026-04-15 15:01 | 49.78178 | 8.27478 | 10662 ft | 297 kts | 283° |
| 2026-04-15 15:01 | 49.78689 | 8.24301 | 10903 ft | 310 kts | 283° |
| 2026-04-15 15:02 | 49.79221 | 8.20981 | 11145 ft | 323 kts | 283° |
| 2026-04-15 15:02 | 20.05896 | -59.91038 | 35264 ft | 436 kts | 236° |
| 2026-04-15 15:02 | 20.05591 | -59.91504 | 35267 ft | 427 kts | 234° |